Time;durP1;ratioP1;P1;durP2;ratioP2;P2;SDS_P1;SDS_P2;PMS_P1;PMS_P2;Temp;Humidity;BMP_temperature;BMP_pressure;BME280_temperature;BME280_humidity;BME280_pressure;Samples;Min_cycle;Max_cycle;Signal;HPM_P1;HPM_P2
2023/04/10 00:00:36;;;;;;;1.27;1.27;;;10.10;99.90;;;;;;4999586;28;20244;-66
2023/04/10 00:03:03;;;;;;;1.30;1.30;;;10.10;99.90;;;;;;5000999;28;20314;-64
2023/04/10 00:05:31;;;;;;;1.23;1.23;;;10.10;99.90;;;;;;5006085;28;20273;-64
2023/04/10 00:07:58;;;;;;;1.33;1.33;;;10.10;99.90;;;;;;5010545;28;20253;-65
2023/04/10 00:10:29;;;;;;;1.35;1.35;;;10.10;99.90;;;;;;4996924;28;20216;-64
2023/04/10 00:12:56;;;;;;;1.20;1.20;;;10.10;99.90;;;;;;4996625;28;20213;-65
2023/04/10 00:15:23;;;;;;;1.23;1.23;;;10.10;99.90;;;;;;4988287;28;20202;-65
2023/04/10 00:17:53;;;;;;;1.15;1.15;;;10.10;99.90;;;;;;4996912;28;20325;-66
2023/04/10 00:20:21;;;;;;;1.17;1.17;;;10.10;99.90;;;;;;4998363;28;20210;-66
2023/04/10 00:22:48;;;;;;;1.30;1.30;;;10.10;99.90;;;;;;5000578;28;20292;-66
2023/04/10 00:25:15;;;;;;;1.20;1.20;;;10.10;99.90;;;;;;5000260;28;20296;-66
2023/04/10 00:27:43;;;;;;;1.40;1.27;;;10.10;99.90;;;;;;4998167;28;20735;-65
2023/04/10 00:30:10;;;;;;;1.30;1.30;;;10.10;99.90;;;;;;4999663;28;20210;-66
2023/04/10 00:32:38;;;;;;;1.20;1.20;;;10.10;99.90;;;;;;5000832;28;20289;-67
2023/04/10 00:35:05;;;;;;;1.52;1.50;;;10.10;99.90;;;;;;4997245;28;20305;-65
2023/04/10 00:37:32;;;;;;;1.30;1.30;;;10.00;99.90;;;;;;4998925;28;20353;-66
2023/04/10 00:39:59;;;;;;;1.10;1.10;;;9.90;99.90;;;;;;5008719;28;20278;-65
2023/04/10 00:42:26;;;;;;;1.30;1.30;;;9.90;99.90;;;;;;5010322;28;20232;-66
2023/04/10 00:44:54;;;;;;;1.20;1.20;;;9.80;99.90;;;;;;5011571;28;20245;-66
2023/04/10 00:47:22;;;;;;;1.23;1.23;;;9.80;99.90;;;;;;5011667;28;20254;-66
2023/04/10 00:49:49;;;;;;;1.40;1.40;;;9.70;99.90;;;;;;4997540;28;20218;-65
2023/04/10 00:52:16;;;;;;;1.30;1.30;;;9.70;99.90;;;;;;4995582;28;20221;-66
2023/04/10 00:54:43;;;;;;;1.27;1.27;;;9.60;99.90;;;;;;4994900;28;20210;-65
2023/04/10 00:57:10;;;;;;;1.30;1.30;;;9.60;99.90;;;;;;4995579;28;20693;-66
2023/04/10 00:59:37;;;;;;;1.25;1.25;;;9.60;99.90;;;;;;4995891;28;20301;-66
2023/04/10 01:02:05;;;;;;;1.30;1.30;;;9.50;99.90;;;;;;5007648;28;20278;-65
2023/04/10 01:04:33;;;;;;;1.17;1.17;;;9.50;99.90;;;;;;4993301;28;20400;-65
2023/04/10 01:07:10;;;;;;;1.40;1.40;;;9.50;99.90;;;;;;4987131;28;20738;-64
2023/04/10 01:09:41;;;;;;;1.30;1.30;;;9.50;99.90;;;;;;4993405;28;20205;-64
2023/04/10 01:12:21;;;;;;;1.38;1.38;;;9.50;99.90;;;;;;4991669;28;20286;-66
2023/04/10 01:15:05;;;;;;;1.17;1.17;;;9.40;99.90;;;;;;5008116;28;20298;-66
2023/04/10 01:17:40;;;;;;;1.33;1.25;;;9.30;99.90;;;;;;5007824;28;20237;-65
2023/04/10 01:20:12;;;;;;;1.30;1.30;;;9.30;99.90;;;;;;5009386;28;20276;-67
2023/04/10 01:23:00;;;;;;;1.17;1.17;;;9.30;99.90;;;;;;5013156;28;20222;-65
2023/04/10 01:25:41;;;;;;;1.30;1.30;;;9.30;99.90;;;;;;5013458;28;20270;-65
2023/04/10 01:28:21;;;;;;;1.30;1.30;;;9.40;99.90;;;;;;4999834;28;20308;-66
2023/04/10 01:30:53;;;;;;;1.27;1.27;;;9.40;99.90;;;;;;4995992;28;20206;-66
2023/04/10 01:33:22;;;;;;;1.10;1.10;;;9.40;99.90;;;;;;4996272;28;20208;-66
2023/04/10 01:35:53;;;;;;;1.10;1.10;;;9.30;99.90;;;;;;4997582;28;20260;-67
2023/04/10 01:38:25;;;;;;;1.10;1.10;;;9.30;99.90;;;;;;4995249;28;20240;-65
2023/04/10 01:40:54;;;;;;;1.30;1.30;;;9.30;99.90;;;;;;4995889;28;20213;-66
2023/04/10 01:43:22;;;;;;;1.20;1.20;;;9.30;99.90;;;;;;4997271;28;20322;-64
2023/04/10 01:45:52;;;;;;;1.20;1.20;;;9.40;99.90;;;;;;5005562;28;20217;-66
2023/04/10 01:48:19;;;;;;;1.20;1.20;;;9.30;99.90;;;;;;5004519;28;20576;-64
2023/04/10 01:50:47;;;;;;;1.20;1.20;;;9.30;99.90;;;;;;4998230;28;20212;-65
2023/04/10 01:53:15;;;;;;;1.30;1.30;;;9.30;99.90;;;;;;4995463;28;20300;-66
2023/04/10 01:55:43;;;;;;;1.40;1.40;;;9.20;99.90;;;;;;4994513;28;20210;-65
2023/04/10 01:58:11;;;;;;;1.20;1.20;;;9.30;99.90;;;;;;4994242;28;20256;-66
2023/04/10 02:00:40;;;;;;;1.10;1.10;;;9.20;99.90;;;;;;4993620;28;20220;-65
2023/04/10 02:03:08;;;;;;;1.17;1.17;;;9.10;99.90;;;;;;4993937;28;20241;-65
2023/04/10 02:05:46;;;;;;;1.10;1.10;;;9.00;99.90;;;;;;4993716;28;20205;-67
2023/04/10 02:08:18;;;;;;;1.27;1.27;;;9.00;99.90;;;;;;4994352;28;20729;-64
2023/04/10 02:10:50;;;;;;;1.23;1.23;;;8.90;99.90;;;;;;4992312;28;20429;-63
2023/04/10 02:13:21;;;;;;;1.35;1.35;;;8.70;99.90;;;;;;4993513;28;20691;-67
2023/04/10 02:15:51;;;;;;;1.10;1.10;;;8.60;99.90;;;;;;4994298;28;20657;-63
2023/04/10 02:18:20;;;;;;;1.58;1.48;;;8.60;99.90;;;;;;4993319;28;20237;-63
2023/04/10 02:20:48;;;;;;;1.20;1.20;;;8.60;99.90;;;;;;4994318;28;20256;-64
2023/04/10 02:23:18;;;;;;;1.30;1.30;;;8.50;99.90;;;;;;4994989;28;20226;-64
2023/04/10 02:25:45;;;;;;;1.40;1.40;;;8.40;99.90;;;;;;4993068;28;20206;-65
2023/04/10 02:28:12;;;;;;;1.25;1.25;;;8.30;99.90;;;;;;4994458;28;20228;-63
2023/04/10 02:30:39;;;;;;;1.35;1.35;;;8.20;99.90;;;;;;4992091;28;20213;-64
2023/04/10 02:33:05;;;;;;;1.40;1.40;;;8.30;99.90;;;;;;4992970;28;20206;-64
2023/04/10 02:35:34;;;;;;;1.30;1.30;;;8.20;99.90;;;;;;4992561;28;20220;-64
2023/04/10 02:38:01;;;;;;;1.30;1.30;;;8.10;99.90;;;;;;4993213;28;20233;-64
2023/04/10 02:40:28;;;;;;;1.30;1.30;;;8.10;99.90;;;;;;4993002;28;20220;-64
2023/04/10 02:45:41;;;;;;;1.30;1.30;;;8.00;99.90;;;;;;4989702;28;20233;-64
2023/04/10 02:48:17;;;;;;;1.25;1.25;;;8.00;99.90;;;;;;4992490;28;20261;-64
2023/04/10 02:51:06;;;;;;;1.15;1.15;;;8.00;99.90;;;;;;4991891;28;20269;-63
2023/04/10 02:53:36;;;;;;;1.20;1.20;;;7.90;99.90;;;;;;4992465;28;20201;-64
2023/04/10 02:56:05;;;;;;;1.10;1.10;;;8.00;99.90;;;;;;4992376;28;20216;-63
2023/04/10 02:58:39;;;;;;;1.20;1.20;;;8.10;99.90;;;;;;4992138;28;20244;-63
2023/04/10 03:01:12;;;;;;;1.20;1.20;;;8.20;99.90;;;;;;4991897;28;20297;-63
2023/04/10 03:03:44;;;;;;;1.10;1.10;;;8.00;99.90;;;;;;4991702;28;20265;-64
2023/04/10 03:06:14;;;;;;;1.35;1.35;;;7.90;99.90;;;;;;4992748;28;20214;-64
2023/04/10 03:08:44;;;;;;;1.40;1.40;;;7.90;99.90;;;;;;4992792;28;20236;-63
2023/04/10 03:11:13;;;;;;;1.20;1.20;;;7.90;99.90;;;;;;4995710;28;20233;-62
2023/04/10 03:13:52;;;;;;;1.30;1.30;;;7.80;99.90;;;;;;4992501;28;20206;-63
2023/04/10 03:16:27;;;;;;;1.20;1.20;;;7.80;99.90;;;;;;4992673;28;20237;-63
2023/04/10 03:18:55;;;;;;;1.33;1.33;;;7.70;99.90;;;;;;4991989;28;20237;-64
2023/04/10 03:21:26;;;;;;;1.10;1.10;;;7.70;99.90;;;;;;4993219;28;20213;-63
2023/04/10 03:23:57;;;;;;;1.20;1.20;;;7.60;99.90;;;;;;5001513;28;20226;-62
2023/04/10 03:26:26;;;;;;;1.27;1.27;;;7.50;99.90;;;;;;5008619;28;20214;-64
2023/04/10 03:28:57;;;;;;;1.30;1.30;;;7.40;99.90;;;;;;5002897;28;20229;-64
2023/04/10 03:31:31;;;;;;;1.30;1.30;;;7.40;99.90;;;;;;4992432;28;20202;-64
2023/04/10 03:34:02;;;;;;;1.30;1.30;;;7.40;99.90;;;;;;4993117;28;20190;-64
2023/04/10 03:36:31;;;;;;;1.20;1.20;;;7.40;99.90;;;;;;4992949;28;20748;-63
2023/04/10 03:39:03;;;;;;;1.20;1.20;;;7.30;99.90;;;;;;4992902;28;20229;-64
2023/04/10 03:41:30;;;;;;;1.10;1.10;;;7.20;99.90;;;;;;4992766;28;20205;-64
2023/04/10 03:43:57;;;;;;;1.30;1.30;;;7.20;99.90;;;;;;4992714;28;20225;-64
2023/04/10 03:46:36;;;;;;;1.20;1.20;;;7.20;99.90;;;;;;4992846;28;20242;-62
2023/04/10 03:49:06;;;;;;;1.20;1.20;;;7.30;99.90;;;;;;4996017;28;20240;-63
2023/04/10 03:51:46;;;;;;;1.30;1.30;;;7.40;99.90;;;;;;4996321;28;20249;-64
2023/04/10 03:54:23;;;;;;;1.30;1.30;;;7.20;99.90;;;;;;4996188;28;20229;-63
2023/04/10 03:57:02;;;;;;;1.13;1.13;;;7.20;99.90;;;;;;4996179;28;20202;-63
2023/04/10 03:59:32;;;;;;;1.10;1.10;;;7.20;99.90;;;;;;4995095;28;20213;-64
2023/04/10 04:02:06;;;;;;;1.02;1.02;;;7.20;99.90;;;;;;4995711;28;20213;-64
2023/04/10 04:04:37;;;;;;;1.10;1.10;;;7.30;99.90;;;;;;4995580;28;20257;-64
2023/04/10 04:07:12;;;;;;;1.20;1.20;;;7.30;99.90;;;;;;4995437;28;20252;-64
2023/04/10 04:09:43;;;;;;;1.30;1.20;;;7.30;99.90;;;;;;4994550;28;20799;-64
2023/04/10 04:12:22;;;;;;;1.20;1.20;;;7.30;99.90;;;;;;4996814;28;20228;-64
2023/04/10 04:14:52;;;;;;;1.10;1.10;;;7.40;99.90;;;;;;4998249;28;20213;-63
2023/04/10 04:17:22;;;;;;;1.10;1.10;;;7.40;99.90;;;;;;4995214;28;20324;-64
2023/04/10 04:19:49;;;;;;;1.27;1.27;;;7.40;99.90;;;;;;4994677;28;20296;-64
2023/04/10 04:22:25;;;;;;;1.08;1.08;;;7.30;99.90;;;;;;4994852;28;20301;-63
2023/04/10 04:24:52;;;;;;;1.02;1.02;;;7.20;99.90;;;;;;4995284;28;20236;-65
2023/04/10 04:27:25;;;;;;;1.30;1.30;;;7.10;99.90;;;;;;4995059;28;20606;-64
2023/04/10 04:29:51;;;;;;;1.20;1.20;;;7.10;99.90;;;;;;4994101;28;20205;-64
2023/04/10 04:32:20;;;;;;;1.23;1.23;;;7.00;99.90;;;;;;4993583;28;20217;-64
2023/04/10 04:34:51;;;;;;;1.30;1.30;;;7.00;99.90;;;;;;4994618;28;20669;-64
2023/04/10 04:37:28;;;;;;;1.30;1.30;;;6.90;99.90;;;;;;4994438;28;20736;-63
2023/04/10 04:39:58;;;;;;;1.30;1.30;;;6.90;99.90;;;;;;4994699;28;20205;-64
2023/04/10 04:42:30;;;;;;;1.27;1.27;;;6.90;99.90;;;;;;4994723;28;20202;-63
2023/04/10 04:44:57;;;;;;;1.27;1.27;;;6.90;99.90;;;;;;4994375;28;20233;-65
2023/04/10 04:47:27;;;;;;;1.27;1.27;;;6.80;99.90;;;;;;4993466;28;20272;-64
2023/04/10 04:49:58;;;;;;;2.20;1.40;;;6.80;99.90;;;;;;4991541;28;20289;-62
2023/04/10 04:52:28;;;;;;;1.27;1.27;;;6.80;99.90;;;;;;4987141;28;20217;-64
2023/04/10 04:54:55;;;;;;;1.30;1.30;;;6.70;99.90;;;;;;4984773;28;20203;-64
2023/04/10 04:57:33;;;;;;;1.17;1.17;;;6.70;99.90;;;;;;4994198;28;20329;-63
2023/04/10 05:00:13;;;;;;;1.10;1.10;;;6.80;99.90;;;;;;4992604;28;20241;-64
2023/04/10 05:02:43;;;;;;;1.20;1.20;;;6.90;99.90;;;;;;4995347;28;20213;-63
2023/04/10 05:05:24;;;;;;;1.30;1.30;;;6.90;99.90;;;;;;5003531;28;20249;-63
2023/04/10 05:07:58;;;;;;;1.15;1.15;;;6.90;99.90;;;;;;5009740;28;20680;-63
2023/04/10 05:10:29;;;;;;;1.30;1.30;;;6.80;99.90;;;;;;4996532;28;20586;-62
2023/04/10 05:13:02;;;;;;;1.30;1.30;;;6.70;99.90;;;;;;4996183;28;20206;-63
2023/04/10 05:15:31;;;;;;;1.20;1.20;;;6.70;99.90;;;;;;4995905;28;20242;-64
2023/04/10 05:18:00;;;;;;;1.02;1.02;;;6.70;99.90;;;;;;4995774;28;20641;-64
2023/04/10 05:20:30;;;;;;;1.33;1.27;;;6.80;99.90;;;;;;4994584;28;20293;-63
2023/04/10 05:23:05;;;;;;;1.20;1.20;;;6.80;99.90;;;;;;4995784;28;20249;-65
2023/04/10 05:25:35;;;;;;;1.10;1.10;;;6.80;99.90;;;;;;4994127;28;20261;-64
2023/04/10 05:28:08;;;;;;;0.95;0.95;;;6.90;99.90;;;;;;4993739;28;20222;-63
2023/04/10 05:30:44;;;;;;;1.20;1.20;;;6.90;99.90;;;;;;4993425;28;20206;-65
2023/04/10 05:33:21;;;;;;;1.10;1.10;;;7.00;99.90;;;;;;4994218;28;20200;-64
2023/04/10 05:35:52;;;;;;;1.10;1.10;;;6.90;99.90;;;;;;4994024;28;20205;-65
2023/04/10 05:38:23;;;;;;;1.10;1.10;;;7.00;99.90;;;;;;4994306;28;20229;-63
2023/04/10 05:40:50;;;;;;;1.10;1.10;;;7.00;99.90;;;;;;4993478;28;20218;-63
2023/04/10 05:43:21;;;;;;;1.10;1.10;;;7.00;99.90;;;;;;4993487;28;20559;-64
2023/04/10 05:46:01;;;;;;;0.98;0.98;;;6.90;99.90;;;;;;4994481;28;20225;-63
2023/04/10 05:48:50;;;;;;;1.10;1.10;;;6.80;99.90;;;;;;4994470;28;20226;-62
2023/04/10 05:51:17;;;;;;;1.20;1.20;;;6.80;99.90;;;;;;4994136;28;20206;-63
2023/04/10 05:53:46;;;;;;;1.20;1.20;;;6.80;99.90;;;;;;4999081;28;20199;-64
2023/04/10 05:56:16;;;;;;;1.42;1.40;;;6.90;99.90;;;;;;5007262;28;20504;-63
2023/04/10 05:58:49;;;;;;;1.20;1.20;;;6.90;99.90;;;;;;4999171;28;20255;-64
2023/04/10 06:01:25;;;;;;;1.20;1.20;;;7.10;99.90;;;;;;4999592;28;20205;-65
2023/04/10 06:04:01;;;;;;;1.10;1.10;;;7.20;99.90;;;;;;5003394;28;20248;-64
2023/04/10 06:06:28;;;;;;;1.10;1.10;;;7.30;99.90;;;;;;4997871;28;20762;-63
2023/04/10 06:08:59;;;;;;;1.20;1.20;;;7.40;99.90;;;;;;4995940;28;20316;-64
2023/04/10 06:11:33;;;;;;;1.30;1.30;;;7.50;99.90;;;;;;4994597;28;20263;-63
2023/04/10 06:14:05;;;;;;;1.88;1.77;;;7.60;99.90;;;;;;4993426;28;20210;-64
2023/04/10 06:16:35;;;;;;;1.60;1.50;;;7.70;99.90;;;;;;4993627;28;20595;-64
2023/04/10 06:19:02;;;;;;;1.40;1.30;;;7.80;99.90;;;;;;4993302;28;20244;-63
2023/04/10 06:21:31;;;;;;;1.33;1.30;;;7.90;99.90;;;;;;4994479;28;20624;-63
2023/04/10 06:24:04;;;;;;;1.40;1.40;;;8.00;99.90;;;;;;4995507;28;20596;-64
2023/04/10 06:29:21;;;;;;;1.10;1.10;;;8.20;99.90;;;;;;5012176;28;20928;-64
2023/04/10 06:32:02;;;;;;;1.10;1.10;;;8.40;99.90;;;;;;5004842;28;20206;-63
2023/04/10 06:34:35;;;;;;;1.10;1.10;;;8.60;99.90;;;;;;4998352;28;20210;-62
2023/04/10 06:37:07;;;;;;;1.17;1.17;;;8.60;99.90;;;;;;4997370;28;20222;-64
2023/04/10 06:39:42;;;;;;;1.10;1.10;;;8.70;99.90;;;;;;4993509;28;20237;-64
2023/04/10 06:42:12;;;;;;;1.00;1.00;;;8.90;99.90;;;;;;4995604;28;20243;-64
2023/04/10 06:44:45;;;;;;;1.08;1.08;;;9.00;99.90;;;;;;4996642;28;20272;-63
2023/04/10 06:47:26;;;;;;;1.10;1.10;;;9.20;99.90;;;;;;5005243;28;20237;-65
2023/04/10 06:50:07;;;;;;;1.02;1.02;;;9.30;99.90;;;;;;5004636;28;20277;-63
2023/04/10 06:52:41;;;;;;;1.27;1.27;;;9.40;99.90;;;;;;4996411;28;20210;-63
2023/04/10 06:55:11;;;;;;;1.20;1.20;;;9.50;99.90;;;;;;4990853;28;20222;-62
2023/04/10 06:57:38;;;;;;;1.20;1.20;;;9.60;99.90;;;;;;4991261;28;20273;-64
2023/04/10 07:00:12;;;;;;;1.30;1.30;;;9.70;99.90;;;;;;4994740;28;20260;-63
2023/04/10 07:02:50;;;;;;;1.40;1.40;;;9.60;99.90;;;;;;4992803;28;20217;-65
2023/04/10 07:05:27;;;;;;;1.40;1.40;;;9.50;99.90;;;;;;4995033;28;20257;-62
2023/04/10 07:07:57;;;;;;;1.30;1.30;;;9.50;99.90;;;;;;5006327;28;20225;-63
2023/04/10 07:10:29;;;;;;;1.30;1.30;;;9.40;99.90;;;;;;5008362;28;20214;-64
2023/04/10 07:13:02;;;;;;;1.50;1.50;;;9.30;99.90;;;;;;5004879;28;20218;-64
2023/04/10 07:15:29;;;;;;;1.30;1.30;;;9.40;99.90;;;;;;4999207;28;20645;-64
2023/04/10 07:18:04;;;;;;;1.65;1.55;;;9.60;99.90;;;;;;4995127;28;20643;-63
2023/04/10 07:20:31;;;;;;;1.20;1.20;;;9.70;99.90;;;;;;4992504;28;20213;-64
2023/04/10 07:23:05;;;;;;;1.30;1.30;;;9.80;99.90;;;;;;4995090;28;20237;-64
2023/04/10 07:25:48;;;;;;;1.23;1.23;;;9.90;99.90;;;;;;4995669;28;20653;-64
2023/04/10 07:28:17;;;;;;;1.38;1.38;;;10.10;99.90;;;;;;4996366;28;20260;-64
2023/04/10 07:30:58;;;;;;;1.65;1.55;;;10.10;99.90;;;;;;4996334;28;20296;-62
2023/04/10 07:33:29;;;;;;;1.42;1.42;;;10.20;99.90;;;;;;4996550;28;20276;-64
2023/04/10 07:36:06;;;;;;;1.45;1.45;;;10.20;99.90;;;;;;4996915;28;20575;-64
2023/04/10 07:38:39;;;;;;;1.40;1.40;;;10.10;99.90;;;;;;4996218;28;20233;-64
2023/04/10 07:41:09;;;;;;;1.53;1.50;;;10.10;99.90;;;;;;4995495;28;20212;-63
2023/04/10 07:43:37;;;;;;;1.48;1.48;;;10.20;99.90;;;;;;4995819;28;20210;-63
2023/04/10 07:46:11;;;;;;;1.50;1.50;;;10.30;99.90;;;;;;4997485;28;20229;-63
2023/04/10 07:48:46;;;;;;;1.85;1.75;;;10.40;99.90;;;;;;4997049;28;20230;-64
2023/04/10 07:51:17;;;;;;;1.80;1.70;;;10.40;99.90;;;;;;4995110;28;20296;-63
2023/04/10 07:53:46;;;;;;;1.80;1.70;;;10.60;99.90;;;;;;4995483;28;20896;-64
2023/04/10 07:56:24;;;;;;;1.73;1.63;;;10.60;99.90;;;;;;4991544;28;20203;-64
2023/04/10 07:58:52;;;;;;;1.40;1.40;;;10.70;99.90;;;;;;4992315;28;20230;-64
2023/04/10 08:01:20;;;;;;;1.67;1.60;;;10.70;99.90;;;;;;4975717;28;20311;-63
2023/04/10 08:03:52;;;;;;;1.85;1.75;;;10.90;99.90;;;;;;4978892;28;20214;-64
2023/04/10 08:06:24;;;;;;;1.80;1.70;;;10.90;99.90;;;;;;4987821;28;20257;-63
2023/04/10 08:09:03;;;;;;;1.90;1.80;;;10.90;99.90;;;;;;4995848;28;20400;-64
2023/04/10 08:11:38;;;;;;;1.80;1.70;;;11.20;99.90;;;;;;4996113;28;20236;-64
2023/04/10 08:14:20;;;;;;;1.40;1.40;;;11.20;99.90;;;;;;4996011;28;20288;-63
2023/04/10 08:16:49;;;;;;;1.83;1.73;;;11.20;99.90;;;;;;4995699;28;20216;-64
2023/04/10 08:19:27;;;;;;;1.65;1.55;;;11.40;99.90;;;;;;5003630;28;20210;-64
2023/04/10 08:21:54;;;;;;;1.42;1.42;;;11.60;99.90;;;;;;5004771;28;20249;-63
2023/04/10 08:24:33;;;;;;;1.40;1.40;;;11.80;99.90;;;;;;4996904;28;20632;-63
2023/04/10 08:27:10;;;;;;;1.58;1.58;;;12.00;99.90;;;;;;4997340;28;20210;-64
2023/04/10 08:29:57;;;;;;;1.40;1.40;;;12.10;99.90;;;;;;5008252;28;20201;-63
2023/04/10 08:32:36;;;;;;;1.50;1.50;;;12.30;99.90;;;;;;5000254;28;20217;-63
2023/04/10 08:35:06;;;;;;;1.50;1.50;;;12.30;99.90;;;;;;4996538;28;20210;-63
2023/04/10 08:37:35;;;;;;;1.38;1.38;;;12.20;99.90;;;;;;4990637;28;20564;-63
2023/04/10 08:40:04;;;;;;;1.42;1.42;;;12.50;99.90;;;;;;4980242;28;20298;-64
2023/04/10 08:42:37;;;;;;;1.48;1.48;;;12.60;99.90;;;;;;4979042;28;20245;-62
2023/04/10 08:45:12;;;;;;;1.38;1.38;;;12.70;99.90;;;;;;4991749;28;20253;-63
2023/04/10 08:47:47;;;;;;;1.50;1.50;;;13.00;99.90;;;;;;4981470;28;20289;-63
2023/04/10 08:50:21;;;;;;;1.50;1.50;;;13.00;99.90;;;;;;4991599;28;20312;-63
2023/04/10 08:52:59;;;;;;;1.38;1.38;;;13.00;99.90;;;;;;4995187;28;20684;-64
2023/04/10 08:55:26;;;;;;;1.40;1.40;;;13.00;99.90;;;;;;4987802;28;20229;-63
2023/04/10 08:57:57;;;;;;;1.35;1.35;;;13.00;99.90;;;;;;4985982;28;20226;-63
2023/04/10 09:00:26;;;;;;;1.40;1.40;;;13.20;99.90;;;;;;4975258;28;20215;-64
2023/04/10 09:02:58;;;;;;;1.23;1.23;;;13.20;99.90;;;;;;4986519;28;20210;-63
2023/04/10 09:05:27;;;;;;;1.38;1.38;;;13.50;99.90;;;;;;4987536;28;20218;-62
2023/04/10 09:08:02;;;;;;;1.30;1.30;;;13.60;99.90;;;;;;4995551;28;20258;-64
2023/04/10 09:10:29;;;;;;;1.30;1.30;;;13.80;99.90;;;;;;4994160;28;20233;-62
2023/04/10 09:12:57;;;;;;;1.70;1.60;;;14.10;99.90;;;;;;4996528;28;20234;-64
2023/04/10 09:15:24;;;;;;;1.70;1.60;;;14.50;99.90;;;;;;4987888;28;20198;-62
2023/04/10 09:17:59;;;;;;;1.30;1.30;;;14.40;99.90;;;;;;4994188;28;20234;-64
2023/04/10 09:20:29;;;;;;;1.33;1.33;;;14.60;99.90;;;;;;4993742;28;20212;-64
2023/04/10 09:22:56;;;;;;;1.40;1.40;;;14.70;99.90;;;;;;4995383;28;20599;-63
2023/04/10 09:25:33;;;;;;;1.30;1.30;;;14.80;99.90;;;;;;4993649;28;20226;-63
2023/04/10 09:28:03;;;;;;;1.30;1.30;;;14.90;99.90;;;;;;4993749;28;20643;-64
2023/04/10 09:30:38;;;;;;;1.20;1.20;;;15.00;99.90;;;;;;4993203;28;20300;-64
2023/04/10 09:33:22;;;;;;;1.20;1.20;;;15.00;99.90;;;;;;4994033;28;20334;-63
2023/04/10 09:35:50;;;;;;;1.25;1.25;;;14.90;99.90;;;;;;4997644;28;20305;-64
2023/04/10 09:38:18;;;;;;;1.25;1.25;;;14.90;99.90;;;;;;4995685;28;20305;-63
2023/04/10 09:40:46;;;;;;;1.20;1.20;;;15.00;99.90;;;;;;4992259;28;20285;-63
2023/04/10 09:43:23;;;;;;;1.20;1.20;;;15.20;99.90;;;;;;4991599;28;20258;-64
2023/04/10 09:45:51;;;;;;;1.35;1.35;;;15.30;99.90;;;;;;4989818;28;20222;-64
2023/04/10 09:48:18;;;;;;;1.30;1.30;;;15.30;99.90;;;;;;4990494;28;20760;-64
2023/04/10 09:50:45;;;;;;;1.30;1.30;;;15.30;99.90;;;;;;4991194;28;20835;-63
2023/04/10 09:53:14;;;;;;;1.20;1.20;;;15.40;99.90;;;;;;4989848;28;20198;-63
2023/04/10 09:55:41;;;;;;;1.50;1.50;;;15.50;99.90;;;;;;4993872;28;20194;-63
2023/04/10 09:58:09;;;;;;;1.27;1.27;;;15.40;99.90;;;;;;4989420;28;20779;-61
2023/04/10 10:00:40;;;;;;;1.42;1.33;;;15.60;99.90;;;;;;4995234;28;20622;-65
2023/04/10 10:03:09;;;;;;;1.17;1.17;;;15.50;99.90;;;;;;4998146;28;20206;-64
2023/04/10 10:05:37;;;;;;;1.20;1.20;;;15.80;99.90;;;;;;5000717;28;20780;-64
2023/04/10 10:08:04;;;;;;;1.20;1.20;;;15.90;99.90;;;;;;5003223;28;20313;-64
2023/04/10 10:10:31;;;;;;;1.20;1.20;;;16.00;99.90;;;;;;5001258;28;20197;-65
2023/04/10 10:13:02;;;;;;;1.23;1.20;;;16.20;99.90;;;;;;4997196;28;20309;-63
2023/04/10 10:15:35;;;;;;;1.38;1.27;;;16.10;99.90;;;;;;4992349;28;20201;-62
2023/04/10 10:18:15;;;;;;;1.27;1.27;;;16.10;99.90;;;;;;4993529;28;20230;-64
2023/04/10 10:20:45;;;;;;;1.20;1.20;;;16.40;99.90;;;;;;4988858;28;20210;-64
2023/04/10 10:23:12;;;;;;;1.20;1.20;;;16.40;99.90;;;;;;4992898;28;20217;-64
2023/04/10 10:25:39;;;;;;;1.20;1.20;;;16.50;99.90;;;;;;4992892;28;20213;-62
2023/04/10 10:28:07;;;;;;;1.10;1.10;;;16.70;99.90;;;;;;4992788;28;20217;-64
2023/04/10 10:30:34;;;;;;;1.20;1.20;;;16.90;99.90;;;;;;4992082;28;20194;-64
2023/04/10 10:33:05;;;;;;;1.20;1.20;;;17.00;99.90;;;;;;4994735;28;20212;-63
2023/04/10 10:35:35;;;;;;;1.20;1.20;;;17.30;99.90;;;;;;4993813;28;20673;-64
2023/04/10 10:38:04;;;;;;;1.42;1.33;;;17.40;99.90;;;;;;4996554;28;20228;-63
2023/04/10 10:40:33;;;;;;;1.02;1.02;;;17.50;99.90;;;;;;4997660;28;20201;-65
2023/04/10 10:43:12;;;;;;;1.00;1.00;;;17.50;99.90;;;;;;4996668;28;20653;-63
2023/04/10 10:45:46;;;;;;;1.17;1.17;;;17.70;99.90;;;;;;4982290;28;20254;-64
2023/04/10 10:48:14;;;;;;;1.00;1.00;;;17.40;99.90;;;;;;4997192;28;20222;-63
2023/04/10 10:50:57;;;;;;;1.10;1.10;;;17.40;99.90;;;;;;5003647;28;20202;-67
2023/04/10 10:53:39;;;;;;;1.05;1.05;;;17.60;99.90;;;;;;4996501;28;20665;-63
2023/04/10 10:56:35;;;;;;;1.00;1.00;;;17.70;99.90;;;;;;4997743;28;20186;-62
2023/04/10 10:59:04;;;;;;;1.10;1.10;;;17.80;99.90;;;;;;5012680;28;20257;-64
2023/04/10 11:01:37;;;;;;;1.10;1.10;;;18.00;99.90;;;;;;5014810;28;20213;-65
2023/04/10 11:04:41;;;;;;;1.00;1.00;;;18.20;99.90;;;;;;5013647;28;20296;-63
2023/04/10 11:07:16;;;;;;;1.00;1.00;;;18.20;99.90;;;;;;4997042;28;20304;-62
2023/04/10 11:09:51;;;;;;;1.00;1.00;;;18.10;99.90;;;;;;4997994;28;20197;-63
2023/04/10 11:12:23;;;;;;;1.08;1.08;;;18.20;99.90;;;;;;4997608;28;20809;-63
2023/04/10 11:15:07;;;;;;;0.88;0.88;;;18.20;99.90;;;;;;4999065;28;20240;-63
2023/04/10 11:17:50;;;;;;;1.00;1.00;;;18.20;99.90;;;;;;4995158;28;20696;-62
2023/04/10 11:20:20;;;;;;;0.90;0.90;;;18.10;99.90;;;;;;4996405;28;20205;-62
2023/04/10 11:23:13;;;;;;;1.20;1.20;;;18.20;99.90;;;;;;4997215;28;20202;-63
2023/04/10 11:25:50;;;;;;;1.05;1.05;;;18.30;99.90;;;;;;4996650;28;20220;-63
2023/04/10 11:28:37;;;;;;;1.00;1.00;;;18.60;99.90;;;;;;5002082;28;20226;-62
2023/04/10 11:31:20;;;;;;;1.00;1.00;;;18.50;99.90;;;;;;4995437;28;20214;-64
2023/04/10 11:33:57;;;;;;;0.90;0.90;;;18.50;99.90;;;;;;4997099;28;20198;-63
2023/04/10 11:36:25;;;;;;;0.80;0.80;;;18.80;99.90;;;;;;4998901;28;20252;-63
2023/04/10 11:39:01;;;;;;;1.00;1.00;;;19.00;99.90;;;;;;4998655;28;20222;-63
2023/04/10 11:41:30;;;;;;;0.90;0.90;;;19.20;99.90;;;;;;4995618;28;20256;-62
2023/04/10 11:43:57;;;;;;;0.90;0.90;;;19.20;99.90;;;;;;5004011;28;20210;-64
2023/04/10 11:46:29;;;;;;;1.00;1.00;;;19.20;99.90;;;;;;5010535;28;20349;-62
2023/04/10 11:49:03;;;;;;;1.00;1.00;;;19.30;99.90;;;;;;5003450;28;20298;-64
2023/04/10 11:51:32;;;;;;;0.90;0.90;;;19.30;99.90;;;;;;5002440;28;20212;-63
2023/04/10 11:54:20;;;;;;;1.02;1.02;;;19.10;99.90;;;;;;4996812;28;20210;-64
2023/04/10 11:57:08;;;;;;;0.80;0.80;;;19.10;99.90;;;;;;4992518;28;20201;-63
2023/04/10 11:59:35;;;;;;;0.90;0.90;;;19.20;99.90;;;;;;4986121;28;20197;-64
2023/04/10 12:02:10;;;;;;;0.88;0.88;;;19.20;99.90;;;;;;4985568;28;20203;-64
2023/04/10 12:04:46;;;;;;;0.85;0.85;;;19.20;99.90;;;;;;4990001;28;20680;-63
2023/04/10 12:07:16;;;;;;;0.90;0.90;;;19.20;99.90;;;;;;4984410;28;20273;-63
2023/04/10 12:10:00;;;;;;;0.85;0.85;;;19.00;99.90;;;;;;4983876;28;20211;-63
2023/04/10 12:12:41;;;;;;;0.90;0.90;;;19.10;99.90;;;;;;4985432;28;20677;-64
2023/04/10 12:15:26;;;;;;;0.85;0.85;;;19.20;99.90;;;;;;4983516;28;20213;-64
2023/04/10 12:17:55;;;;;;;0.80;0.80;;;19.10;99.90;;;;;;4990037;28;20226;-62
2023/04/10 12:20:33;;;;;;;0.90;0.90;;;19.20;99.90;;;;;;4993084;28;20254;-63
2023/04/10 12:23:12;;;;;;;0.77;0.77;;;19.40;99.90;;;;;;4994152;28;20691;-64
2023/04/10 12:25:48;;;;;;;0.90;0.90;;;19.50;99.90;;;;;;4992604;28;20210;-63
2023/04/10 12:28:26;;;;;;;1.00;1.00;;;19.70;99.90;;;;;;4984398;28;20641;-63
2023/04/10 12:30:55;;;;;;;0.80;0.80;;;19.70;99.90;;;;;;4982928;28;20209;-63
2023/04/10 12:33:29;;;;;;;0.80;0.80;;;19.70;99.90;;;;;;4983757;28;20264;-62
2023/04/10 12:35:58;;;;;;;0.80;0.80;;;19.80;99.90;;;;;;4988784;28;20204;-63
2023/04/10 12:38:41;;;;;;;0.70;0.70;;;19.80;99.90;;;;;;4985396;28;20221;-64
2023/04/10 12:41:13;;;;;;;0.80;0.80;;;19.80;99.90;;;;;;4985055;28;20753;-62
2023/04/10 12:43:45;;;;;;;0.70;0.70;;;19.90;99.90;;;;;;4980610;28;20198;-64
2023/04/10 12:46:27;;;;;;;0.70;0.70;;;20.00;99.90;;;;;;4985815;28;20210;-63
2023/04/10 12:49:10;;;;;;;0.80;0.80;;;19.90;99.90;;;;;;4983722;28;20229;-64
2023/04/10 12:51:46;;;;;;;0.70;0.70;;;19.70;99.90;;;;;;4982431;28;20644;-63
2023/04/10 12:54:36;;;;;;;2.05;0.90;;;19.90;99.90;;;;;;4983288;28;20206;-63
2023/04/10 12:57:05;;;;;;;0.75;0.75;;;20.00;99.90;;;;;;4988300;28;20229;-62
2023/04/10 12:59:43;;;;;;;0.77;0.77;;;20.00;99.90;;;;;;4988240;28;20591;-65
2023/04/10 13:02:17;;;;;;;0.80;0.80;;;20.10;99.90;;;;;;5000696;28;20237;-63
2023/04/10 13:04:44;;;;;;;0.90;0.90;;;20.00;99.90;;;;;;4981172;28;20202;-63
2023/04/10 13:07:18;;;;;;;1.20;0.90;;;20.10;99.90;;;;;;4999787;28;20229;-63
2023/04/10 13:09:51;;;;;;;0.80;0.80;;;20.10;99.90;;;;;;5001591;28;20205;-63
2023/04/10 13:12:24;;;;;;;0.83;0.83;;;20.10;99.90;;;;;;5000050;28;20212;-63
2023/04/10 13:14:55;;;;;;;0.90;0.90;;;20.10;99.90;;;;;;5003637;28;20281;-63
2023/04/10 13:17:25;;;;;;;0.90;0.90;;;20.00;99.90;;;;;;5001976;28;20232;-64
2023/04/10 13:20:01;;;;;;;0.80;0.80;;;20.10;99.90;;;;;;5002178;28;20237;-63
2023/04/10 13:22:30;;;;;;;0.90;0.90;;;20.00;99.90;;;;;;5006416;28;20245;-62
2023/04/10 13:25:06;;;;;;;1.40;1.30;;;20.10;99.90;;;;;;4999480;28;20202;-66